Time;durP1;ratioP1;P1;durP2;ratioP2;P2;SDS_P1;SDS_P2;PMS_P1;PMS_P2;Temp;Humidity;BMP_temperature;BMP_pressure;BME280_temperature;BME280_humidity;BME280_pressure;Samples;Min_cycle;Max_cycle;Signal;HPM_P1;HPM_P2
2022/04/28 00:00:24;;;;;;;;;48.50;39.50;;;;;;;;5101882;27;45398;-75
2022/04/28 00:02:49;;;;;;;;;46.00;39.00;;;;;;;;5101711;27;45375;-75
2022/04/28 00:05:14;;;;;;;;;46.00;38.00;;;;;;;;5100181;27;45237;-76
2022/04/28 00:07:40;;;;;;;;;48.75;39.25;;;;;;;;5100493;27;45529;-74
2022/04/28 00:10:06;;;;;;;;;51.25;42.00;;;;;;;;5101688;27;45493;-75
2022/04/28 00:12:32;;;;;;;;;48.00;40.50;;;;;;;;5101546;27;45254;-75
2022/04/28 00:14:57;;;;;;;;;46.25;39.00;;;;;;;;5103350;27;45398;-75
2022/04/28 00:17:22;;;;;;;;;48.25;40.75;;;;;;;;5122422;27;45366;-75
2022/04/28 00:19:47;;;;;;;;;48.50;40.25;;;;;;;;5122426;27;45299;-75
2022/04/28 00:22:13;;;;;;;;;50.25;41.25;;;;;;;;5121739;27;45320;-75
2022/04/28 00:24:39;;;;;;;;;51.25;42.75;;;;;;;;5120561;27;45350;-74
2022/04/28 00:27:04;;;;;;;;;47.00;39.25;;;;;;;;5122196;27;45348;-74
2022/04/28 00:29:29;;;;;;;;;48.50;40.75;;;;;;;;5120648;27;47437;-75
2022/04/28 00:31:54;;;;;;;;;52.00;42.25;;;;;;;;5121584;27;45376;-74
2022/04/28 00:34:20;;;;;;;;;48.50;40.75;;;;;;;;5121984;27;45251;-75
2022/04/28 00:36:45;;;;;;;;;45.50;38.75;;;;;;;;5120349;27;45350;-75
2022/04/28 00:39:10;;;;;;;;;50.25;41.50;;;;;;;;5120435;27;47212;-74
2022/04/28 00:41:35;;;;;;;;;50.50;41.00;;;;;;;;5122136;27;45453;-74
2022/04/28 00:44:00;;;;;;;;;47.00;39.75;;;;;;;;5121775;27;45281;-75
2022/04/28 00:46:26;;;;;;;;;48.50;40.00;;;;;;;;5120243;27;45386;-75
2022/04/28 00:51:35;;;;;;;;;49.25;38.50;;;;;;;;5121178;27;45314;-74
2022/04/28 00:54:01;;;;;;;;;47.75;40.50;;;;;;;;5120096;27;46006;-74
2022/04/28 00:56:27;;;;;;;;;50.00;40.50;;;;;;;;5122001;27;45447;-74
2022/04/28 00:58:53;;;;;;;;;51.00;40.75;;;;;;;;5121555;27;45322;-74
2022/04/28 01:01:18;;;;;;;;;49.50;41.00;;;;;;;;5121381;27;46137;-75
2022/04/28 01:03:46;;;;;;;;;47.25;39.25;;;;;;;;5121425;27;45287;-75
2022/04/28 01:06:11;;;;;;;;;49.00;40.25;;;;;;;;5119940;27;45324;-74
2022/04/28 01:08:36;;;;;;;;;48.75;40.75;;;;;;;;5119864;27;46217;-75
2022/04/28 01:11:02;;;;;;;;;51.00;42.50;;;;;;;;5120247;27;45788;-75
2022/04/28 01:13:28;;;;;;;;;45.75;38.50;;;;;;;;5121406;27;45591;-75
2022/04/28 01:15:54;;;;;;;;;46.00;38.50;;;;;;;;5110039;27;45278;-75
2022/04/28 01:18:19;;;;;;;;;45.75;39.25;;;;;;;;5100738;27;45508;-74
2022/04/28 01:20:44;;;;;;;;;49.00;41.00;;;;;;;;5100415;27;46212;-75
2022/04/28 01:23:10;;;;;;;;;51.25;41.00;;;;;;;;5100275;27;45373;-75
2022/04/28 01:25:35;;;;;;;;;50.25;42.25;;;;;;;;5099125;27;45383;-76
2022/04/28 01:28:00;;;;;;;;;47.75;39.75;;;;;;;;5100352;27;45293;-75
2022/04/28 01:30:26;;;;;;;;;46.00;39.25;;;;;;;;5100404;27;45300;-74
2022/04/28 01:32:52;;;;;;;;;51.25;40.00;;;;;;;;5100173;27;45611;-73
2022/04/28 01:35:17;;;;;;;;;48.50;40.50;;;;;;;;5100369;27;45361;-74
2022/04/28 01:37:42;;;;;;;;;51.50;41.25;;;;;;;;5099973;27;45339;-74
2022/04/28 01:40:11;;;;;;;;;44.50;38.25;;;;;;;;5100172;27;46592;-74
2022/04/28 01:42:37;;;;;;;;;48.25;40.00;;;;;;;;5100349;27;45332;-74
2022/04/28 01:45:06;;;;;;;;;48.50;39.75;;;;;;;;5100349;27;45216;-75
2022/04/28 01:47:31;;;;;;;;;49.00;40.75;;;;;;;;5100151;27;45765;-74
2022/04/28 01:49:56;;;;;;;;;48.75;40.25;;;;;;;;5100028;27;45428;-75
2022/04/28 01:55:05;;;;;;;;;48.00;39.75;;;;;;;;5100197;27;45225;-74
2022/04/28 01:57:31;;;;;;;;;48.25;39.00;;;;;;;;5097951;27;46309;-74
2022/04/28 02:00:00;;;;;;;;;48.00;40.00;;;;;;;;5099741;27;45466;-75
2022/04/28 02:02:25;;;;;;;;;49.50;40.75;;;;;;;;5100188;27;45290;-75
2022/04/28 02:04:51;;;;;;;;;50.00;41.00;;;;;;;;5098698;27;45294;-75
2022/04/28 02:07:16;;;;;;;;;44.25;37.25;;;;;;;;5099837;27;45593;-75
2022/04/28 02:09:42;;;;;;;;;45.50;39.00;;;;;;;;5098831;27;47125;-75
2022/04/28 02:12:08;;;;;;;;;50.75;41.25;;;;;;;;5099885;27;45475;-74
2022/04/28 02:14:33;;;;;;;;;48.00;40.75;;;;;;;;5099965;27;45288;-74
2022/04/28 02:16:58;;;;;;;;;49.00;40.00;;;;;;;;5120537;27;45251;-74
2022/04/28 02:19:24;;;;;;;;;49.50;41.00;;;;;;;;5120410;27;45792;-75
2022/04/28 02:21:49;;;;;;;;;48.00;38.75;;;;;;;;5118631;27;45446;-75
2022/04/28 02:24:14;;;;;;;;;47.50;39.00;;;;;;;;5120731;27;45198;-75
2022/04/28 02:26:39;;;;;;;;;48.00;39.75;;;;;;;;5120728;27;45380;-75
2022/04/28 02:29:05;;;;;;;;;50.25;41.25;;;;;;;;5120099;27;46323;-74
2022/04/28 02:31:30;;;;;;;;;46.75;38.25;;;;;;;;5120004;27;45348;-74
2022/04/28 02:33:55;;;;;;;;;48.75;40.75;;;;;;;;5118992;27;45351;-75
2022/04/28 02:36:20;;;;;;;;;50.25;40.75;;;;;;;;5120173;27;45684;-74
2022/04/28 02:38:46;;;;;;;;;48.25;38.75;;;;;;;;5119914;27;45384;-75
2022/04/28 02:41:11;;;;;;;;;51.25;42.00;;;;;;;;5119006;27;46023;-75
2022/04/28 02:43:36;;;;;;;;;49.25;41.75;;;;;;;;5120289;27;45514;-74
2022/04/28 02:46:01;;;;;;;;;48.50;41.00;;;;;;;;5119928;27;45419;-75
2022/04/28 02:48:27;;;;;;;;;48.75;40.75;;;;;;;;5120105;27;45364;-74
2022/04/28 02:50:52;;;;;;;;;50.00;40.00;;;;;;;;5118310;27;45844;-75
2022/04/28 02:53:18;;;;;;;;;47.25;38.50;;;;;;;;5120267;27;45344;-76
2022/04/28 02:55:43;;;;;;;;;49.00;40.25;;;;;;;;5120175;27;45310;-74
2022/04/28 02:58:08;;;;;;;;;48.25;38.25;;;;;;;;5118362;27;47305;-75
2022/04/28 03:00:34;;;;;;;;;48.25;40.25;;;;;;;;5119995;27;45250;-74
2022/04/28 03:02:59;;;;;;;;;52.00;43.00;;;;;;;;5120161;27;45289;-75
2022/04/28 03:05:24;;;;;;;;;50.00;42.00;;;;;;;;5119988;27;45336;-74
2022/04/28 03:10:46;;;;;;;;;48.25;40.50;;;;;;;;5123443;27;45239;-75
2022/04/28 03:13:11;;;;;;;;;48.00;41.25;;;;;;;;5121844;27;45248;-74
2022/04/28 03:15:39;;;;;;;;;53.25;42.75;;;;;;;;5112519;27;45891;-75
2022/04/28 03:18:04;;;;;;;;;50.00;41.00;;;;;;;;5102492;27;46123;-74
2022/04/28 03:20:29;;;;;;;;;50.75;42.00;;;;;;;;5102721;27;45628;-75
2022/04/28 03:22:55;;;;;;;;;50.75;42.00;;;;;;;;5102569;27;45658;-75
2022/04/28 03:25:20;;;;;;;;;49.25;40.50;;;;;;;;5102879;27;45483;-75
2022/04/28 03:27:45;;;;;;;;;49.25;41.00;;;;;;;;5102242;27;46375;-75
2022/04/28 03:30:10;;;;;;;;;49.00;41.25;;;;;;;;5102492;27;45412;-74
2022/04/28 03:32:36;;;;;;;;;54.25;44.00;;;;;;;;5102265;27;45312;-75
2022/04/28 03:35:01;;;;;;;;;51.50;42.75;;;;;;;;5102479;27;45434;-75
2022/04/28 03:37:26;;;;;;;;;53.00;43.00;;;;;;;;5100755;27;47029;-74
2022/04/28 03:39:52;;;;;;;;;52.25;43.00;;;;;;;;5100698;27;45754;-75
2022/04/28 03:42:20;;;;;;;;;51.00;42.25;;;;;;;;5102442;27;45325;-75
2022/04/28 03:44:45;;;;;;;;;51.00;42.50;;;;;;;;5101227;27;47431;-75
2022/04/28 03:47:10;;;;;;;;;51.00;41.00;;;;;;;;5102315;27;45316;-75
2022/04/28 03:49:36;;;;;;;;;52.75;43.25;;;;;;;;5100805;27;45361;-75
2022/04/28 03:52:02;;;;;;;;;47.00;40.00;;;;;;;;5102080;27;45276;-74
2022/04/28 03:54:27;;;;;;;;;51.25;42.25;;;;;;;;5102354;27;45307;-75
2022/04/28 03:56:52;;;;;;;;;53.25;42.50;;;;;;;;5100580;27;47142;-75
2022/04/28 03:59:17;;;;;;;;;55.25;45.50;;;;;;;;5102237;27;45206;-74
2022/04/28 04:01:42;;;;;;;;;58.25;46.50;;;;;;;;5100626;27;45210;-74
2022/04/28 04:04:08;;;;;;;;;51.50;43.25;;;;;;;;5101835;27;45189;-75
2022/04/28 04:06:33;;;;;;;;;52.50;43.50;;;;;;;;5100333;27;47475;-75
2022/04/28 04:08:58;;;;;;;;;65.00;49.50;;;;;;;;5102114;27;45330;-74
2022/04/28 04:11:23;;;;;;;;;58.75;46.50;;;;;;;;5100944;27;45269;-75
2022/04/28 04:13:49;;;;;;;;;52.50;44.25;;;;;;;;5101829;27;45483;-74
2022/04/28 04:16:14;;;;;;;;;57.25;46.25;;;;;;;;5115968;27;45946;-75
2022/04/28 04:18:39;;;;;;;;;57.00;46.00;;;;;;;;5120909;27;45259;-74
2022/04/28 04:21:04;;;;;;;;;57.50;45.50;;;;;;;;5120570;27;45352;-75
2022/04/28 04:23:31;;;;;;;;;61.25;50.00;;;;;;;;5122019;27;45264;-73
2022/04/28 04:25:57;;;;;;;;;61.00;49.25;;;;;;;;5121787;27;45290;-74
2022/04/28 04:28:22;;;;;;;;;62.25;49.75;;;;;;;;5121899;27;45271;-74
2022/04/28 04:33:31;;;;;;;;;61.75;49.00;;;;;;;;5121682;27;45414;-74
2022/04/28 04:35:57;;;;;;;;;58.50;46.75;;;;;;;;5121288;27;45338;-74
2022/04/28 04:38:22;;;;;;;;;69.75;54.25;;;;;;;;5096204;27;45336;-73
2022/04/28 04:40:47;;;;;;;;;71.75;58.50;;;;;;;;5079672;28;45492;-74
2022/04/28 04:43:15;;;;;;;;;97.50;87.25;;;;;;;;5079157;28;46445;-74
2022/04/28 04:45:44;;;;;;;;;93.75;81.75;;;;;;;;5079163;28;47373;-74
2022/04/28 04:48:10;;;;;;;;;93.00;78.50;;;;;;;;5079054;28;45506;-74
2022/04/28 04:50:36;;;;;;;;;88.50;81.00;;;;;;;;5080782;27;45238;-74
2022/04/28 04:53:01;;;;;;;;;107.25;93.00;;;;;;;;5080203;27;45279;-75
2022/04/28 04:55:26;;;;;;;;;74.50;61.25;;;;;;;;5080302;27;46801;-75
2022/04/28 04:57:51;;;;;;;;;121.33;106.00;;;;;;;;5080302;27;45709;-74
2022/04/28 05:00:17;;;;;;;;;92.50;81.75;;;;;;;;5080359;27;45373;-74
2022/04/28 05:02:42;;;;;;;;;89.50;81.50;;;;;;;;5080281;27;45297;-74
2022/04/28 05:05:07;;;;;;;;;98.50;83.00;;;;;;;;5080228;27;46408;-74
2022/04/28 05:07:33;;;;;;;;;74.25;63.00;;;;;;;;5080300;28;45346;-75
2022/04/28 05:09:58;;;;;;;;;76.25;61.75;;;;;;;;5080330;28;45380;-74
2022/04/28 05:12:23;;;;;;;;;61.75;48.00;;;;;;;;5080283;27;45381;-74
2022/04/28 05:14:48;;;;;;;;;83.50;72.00;;;;;;;;5084781;27;45307;-74
2022/04/28 05:17:14;;;;;;;;;137.00;114.33;;;;;;;;5120843;27;45332;-76
2022/04/28 05:19:39;;;;;;;;;135.00;116.33;;;;;;;;5121173;27;45223;-76
2022/04/28 05:22:04;;;;;;;;;122.25;103.25;;;;;;;;5120819;27;45349;-76
2022/04/28 05:24:29;;;;;;;;;102.75;95.75;;;;;;;;5119653;27;47123;-76
2022/04/28 05:26:55;;;;;;;;;92.25;87.50;;;;;;;;5120912;27;45394;-76
2022/04/28 05:29:20;;;;;;;;;132.50;109.75;;;;;;;;5121189;27;45355;-75
2022/04/28 05:31:45;;;;;;;;;158.00;142.00;;;;;;;;5118400;27;46092;-76
2022/04/28 05:34:10;;;;;;;;;113.25;101.50;;;;;;;;5120690;27;45523;-76
2022/04/28 05:36:36;;;;;;;;;71.00;59.25;;;;;;;;5120566;27;45337;-76
2022/04/28 05:39:02;;;;;;;;;65.75;53.25;;;;;;;;5119550;27;45255;-76
2022/04/28 05:41:28;;;;;;;;;73.75;60.00;;;;;;;;5119465;27;45423;-76
2022/04/28 05:46:38;;;;;;;;;96.25;84.25;;;;;;;;5120600;27;45281;-76
2022/04/28 05:49:06;;;;;;;;;65.75;52.50;;;;;;;;5119476;27;45407;-76
2022/04/28 05:51:31;;;;;;;;;100.50;89.25;;;;;;;;5120336;27;45566;-75
2022/04/28 05:53:57;;;;;;;;;93.00;83.75;;;;;;;;5119069;27;47663;-76
2022/04/28 05:56:22;;;;;;;;;117.67;105.00;;;;;;;;5119126;27;45344;-76
2022/04/28 05:58:47;;;;;;;;;129.00;116.00;;;;;;;;5120687;27;45308;-76
2022/04/28 06:01:13;;;;;;;;;73.00;58.50;;;;;;;;5120614;27;45250;-75
2022/04/28 06:03:39;;;;;;;;;80.25;72.25;;;;;;;;5120223;27;45341;-77
2022/04/28 06:06:04;;;;;;;;;161.67;145.33;;;;;;;;5120238;27;45233;-76
2022/04/28 06:08:30;;;;;;;;;89.00;80.50;;;;;;;;5120358;27;45502;-76
2022/04/28 06:10:57;;;;;;;;;82.25;74.00;;;;;;;;5120383;27;45429;-76
2022/04/28 06:13:22;;;;;;;;;141.33;126.33;;;;;;;;5120188;27;45328;-77
2022/04/28 06:15:47;;;;;;;;;138.67;119.67;;;;;;;;5108171;27;45562;-76
2022/04/28 06:18:12;;;;;;;;;129.67;120.33;;;;;;;;5098451;27;45310;-76
2022/04/28 06:20:38;;;;;;;;;78.00;71.00;;;;;;;;5099571;27;45609;-76
2022/04/28 06:23:03;;;;;;;;;131.75;115.75;;;;;;;;5098118;27;47932;-76
2022/04/28 06:25:28;;;;;;;;;165.67;139.67;;;;;;;;5098107;27;45294;-76
2022/04/28 06:27:53;;;;;;;;;121.33;110.00;;;;;;;;5098441;27;45300;-77
2022/04/28 06:30:18;;;;;;;;;143.00;125.00;;;;;;;;5099736;27;45309;-76
2022/04/28 06:32:44;;;;;;;;;145.33;129.67;;;;;;;;5099407;27;46359;-75
2022/04/28 06:35:09;;;;;;;;;225.00;196.75;;;;;;;;5099499;27;45381;-77
2022/04/28 06:37:35;;;;;;;;;146.67;127.33;;;;;;;;5099294;27;45297;-76
2022/04/28 06:40:00;;;;;;;;;104.50;95.25;;;;;;;;5099230;27;45316;-76
2022/04/28 06:42:26;;;;;;;;;83.75;79.25;;;;;;;;5099580;27;45894;-75
2022/04/28 06:44:51;;;;;;;;;80.75;69.75;;;;;;;;5102801;27;45325;-76
2022/04/28 06:47:16;;;;;;;;;83.50;76.75;;;;;;;;5103149;27;45354;-76
2022/04/28 06:49:41;;;;;;;;;185.50;157.25;;;;;;;;5102961;27;45322;-76
2022/04/28 06:52:06;;;;;;;;;141.33;126.33;;;;;;;;5102464;27;45325;-77
2022/04/28 06:54:33;;;;;;;;;80.50;73.75;;;;;;;;5102787;27;45293;-76
2022/04/28 06:56:58;;;;;;;;;84.25;76.75;;;;;;;;5102944;27;45852;-76
2022/04/28 06:59:24;;;;;;;;;76.25;66.50;;;;;;;;5101185;27;47263;-76
2022/04/28 07:01:49;;;;;;;;;73.00;59.00;;;;;;;;5102610;27;45268;-75
2022/04/28 07:04:14;;;;;;;;;96.00;83.75;;;;;;;;5101180;27;45388;-77
2022/04/28 07:06:40;;;;;;;;;96.25;85.50;;;;;;;;5102546;27;45246;-75
2022/04/28 07:09:05;;;;;;;;;97.75;91.00;;;;;;;;5101105;27;47200;-76
2022/04/28 07:11:30;;;;;;;;;69.25;55.75;;;;;;;;5102542;27;45350;-76
2022/04/28 07:13:55;;;;;;;;;71.00;58.25;;;;;;;;5102534;27;45316;-76
2022/04/28 07:16:20;;;;;;;;;80.50;74.25;;;;;;;;5117730;27;45292;-76
2022/04/28 07:18:46;;;;;;;;;59.25;48.25;;;;;;;;5122924;27;45256;-76
2022/04/28 07:21:11;;;;;;;;;142.00;127.33;;;;;;;;5122748;27;45359;-77
2022/04/28 07:23:36;;;;;;;;;136.33;124.00;;;;;;;;5121554;27;45233;-76
2022/04/28 07:26:02;;;;;;;;;95.25;88.75;;;;;;;;5123087;27;45838;-76
2022/04/28 07:28:27;;;;;;;;;105.00;94.25;;;;;;;;5122943;27;45301;-76
2022/04/28 07:30:52;;;;;;;;;99.50;88.50;;;;;;;;5122650;27;45420;-76
2022/04/28 07:33:17;;;;;;;;;74.25;63.00;;;;;;;;5122857;27;45425;-76
2022/04/28 07:35:42;;;;;;;;;74.75;65.50;;;;;;;;5122386;27;45455;-75
2022/04/28 07:38:08;;;;;;;;;98.25;87.50;;;;;;;;5121213;27;46406;-77
2022/04/28 07:40:34;;;;;;;;;126.67;114.33;;;;;;;;5121366;27;47146;-76
2022/04/28 07:42:59;;;;;;;;;90.75;85.50;;;;;;;;5122921;27;45559;-77
2022/04/28 07:45:24;;;;;;;;;85.75;78.50;;;;;;;;5122729;27;45313;-76
2022/04/28 07:47:50;;;;;;;;;76.25;66.00;;;;;;;;5121072;27;47073;-76
2022/04/28 07:50:15;;;;;;;;;70.00;60.25;;;;;;;;5122372;27;46324;-76
2022/04/28 07:52:41;;;;;;;;;76.75;67.00;;;;;;;;5120794;27;45898;-76
2022/04/28 07:55:06;;;;;;;;;81.75;73.25;;;;;;;;5120485;27;45327;-76
2022/04/28 07:57:32;;;;;;;;;67.75;54.25;;;;;;;;5122332;27;45405;-76
2022/04/28 07:59:57;;;;;;;;;57.00;45.50;;;;;;;;5120939;27;47802;-75
2022/04/28 08:02:23;;;;;;;;;52.25;43.00;;;;;;;;5122254;27;45326;-76
2022/04/28 08:04:48;;;;;;;;;52.75;44.00;;;;;;;;5122330;27;45286;-76
2022/04/28 08:07:13;;;;;;;;;79.50;74.25;;;;;;;;5120563;27;46479;-75
2022/04/28 08:09:38;;;;;;;;;69.00;57.25;;;;;;;;5122249;27;45442;-76
2022/04/28 08:12:05;;;;;;;;;58.25;46.00;;;;;;;;5120650;27;45650;-76
2022/04/28 08:14:30;;;;;;;;;50.50;42.25;;;;;;;;5122387;27;45383;-76
2022/04/28 08:16:56;;;;;;;;;97.50;89.50;;;;;;;;5100021;27;46730;-75
2022/04/28 08:19:21;;;;;;;;;90.00;80.00;;;;;;;;5100115;27;48059;-75
2022/04/28 08:21:47;;;;;;;;;57.00;45.50;;;;;;;;5099685;27;45238;-77
2022/04/28 08:24:13;;;;;;;;;54.50;44.00;;;;;;;;5101503;27;45285;-77
2022/04/28 08:26:38;;;;;;;;;54.75;46.00;;;;;;;;5099897;27;46071;-76
2022/04/28 08:29:04;;;;;;;;;51.00;42.75;;;;;;;;5099965;27;47449;-76
2022/04/28 08:31:29;;;;;;;;;47.25;39.75;;;;;;;;5101294;27;45327;-75
2022/04/28 08:33:54;;;;;;;;;52.75;42.25;;;;;;;;5099867;27;45468;-77
2022/04/28 08:36:20;;;;;;;;;60.75;49.00;;;;;;;;5100561;27;45321;-76
2022/04/28 08:38:45;;;;;;;;;132.50;118.75;;;;;;;;5099543;27;46927;-77
2022/04/28 08:41:15;;;;;;;;;51.25;43.25;;;;;;;;5099790;27;45354;-76
2022/04/28 08:43:41;;;;;;;;;58.00;45.25;;;;;;;;5101235;27;45343;-75
2022/04/28 08:48:52;;;;;;;;;57.50;45.75;;;;;;;;5100907;27;45861;-76
2022/04/28 08:51:18;;;;;;;;;42.50;36.75;;;;;;;;5100547;27;45283;-75
2022/04/28 08:53:45;;;;;;;;;59.50;47.25;;;;;;;;5100900;27;45240;-76
2022/04/28 08:56:10;;;;;;;;;65.00;53.00;;;;;;;;5100683;27;45475;-75
2022/04/28 08:58:36;;;;;;;;;56.75;44.75;;;;;;;;5099309;27;48548;-76
2022/04/28 09:01:01;;;;;;;;;69.25;58.25;;;;;;;;5100760;27;45334;-76
2022/04/28 09:03:26;;;;;;;;;82.00;76.75;;;;;;;;5101006;27;45404;-77
2022/04/28 09:05:51;;;;;;;;;83.00;77.25;;;;;;;;5099136;27;45667;-77
2022/04/28 09:08:18;;;;;;;;;42.50;36.25;;;;;;;;5100730;27;46115;-76
2022/04/28 09:10:43;;;;;;;;;42.75;36.25;;;;;;;;5100852;27;45399;-76
2022/04/28 09:15:54;;;;;;;;;37.00;34.00;;;;;;;;5111568;27;45343;-78
2022/04/28 09:18:20;;;;;;;;;36.67;33.33;;;;;;;;5119646;27;48233;-77
2022/04/28 09:20:46;;;;;;;;;74.25;68.25;;;;;;;;5120886;27;45310;-77
2022/04/28 09:23:12;;;;;;;;;62.25;47.75;;;;;;;;5119830;27;45392;-77
2022/04/28 09:25:39;;;;;;;;;42.00;36.25;;;;;;;;5120839;27;45553;-76
2022/04/28 09:28:04;;;;;;;;;22.67;22.67;;;;;;;;5120915;27;46184;-76
2022/04/28 09:30:39;;;;;;;;;69.75;56.75;;;;;;;;5120524;27;45524;-78
2022/04/28 09:33:11;;;;;;;;;36.00;31.33;;;;;;;;5121053;27;45387;-77
2022/04/28 09:35:43;;;;;;;;;24.00;23.00;;;;;;;;5120304;27;45400;-77
2022/04/28 09:38:10;;;;;;;;;49.50;38.75;;;;;;;;5098533;27;46130;-76
2022/04/28 09:43:19;;;;;;;;;20.33;20.33;;;;;;;;5100318;27;45338;-77
2022/04/28 09:45:44;;;;;;;;;21.67;20.67;;;;;;;;5099888;27;45301;-77
2022/04/28 09:48:10;;;;;;;;;68.50;56.50;;;;;;;;5099986;27;45238;-77
2022/04/28 09:50:37;;;;;;;;;29.67;28.67;;;;;;;;5099982;27;45214;-77
2022/04/28 09:53:04;;;;;;;;;39.67;34.00;;;;;;;;5100104;27;45327;-77
2022/04/28 09:55:30;;;;;;;;;44.50;35.50;;;;;;;;5099859;27;45311;-77
2022/04/28 09:57:56;;;;;;;;;22.00;20.33;;;;;;;;5099857;27;45347;-77
2022/04/28 10:00:21;;;;;;;;;63.50;49.50;;;;;;;;5098634;27;45290;-77
2022/04/28 10:02:47;;;;;;;;;20.00;18.67;;;;;;;;5100163;27;45286;-78
2022/04/28 10:05:12;;;;;;;;;65.00;56.25;;;;;;;;5099858;27;45461;-78
2022/04/28 10:07:38;;;;;;;;;67.75;51.25;;;;;;;;5098131;27;47161;-77
2022/04/28 10:10:04;;;;;;;;;31.00;29.67;;;;;;;;5099771;27;45488;-76
2022/04/28 10:12:29;;;;;;;;;83.75;68.75;;;;;;;;5098638;27;45500;-76
2022/04/28 10:14:55;;;;;;;;;27.00;24.67;;;;;;;;5095091;27;46470;-77
2022/04/28 10:17:41;;;;;;;;;28.33;27.00;;;;;;;;5079301;27;46067;-76
2022/04/28 10:20:11;;;;;;;;;70.00;57.50;;;;;;;;5081508;28;45347;-77
2022/04/28 10:22:37;;;;;;;;;41.33;34.00;;;;;;;;5082589;27;45408;-76
2022/04/28 10:33:25;;;;;;;;;59.75;48.75;;;;;;;;5082634;28;45397;-75
2022/04/28 10:35:50;;;;;;;;;43.00;37.33;;;;;;;;5080622;28;45430;-77
2022/04/28 10:38:21;;;;;;;;;18.00;18.00;;;;;;;;5081079;28;48167;-77
2022/04/28 10:40:59;;;;;;;;;13.33;13.33;;;;;;;;5082661;27;45225;-78
2022/04/28 10:43:34;;;;;;;;;48.50;39.00;;;;;;;;5082637;27;45459;-76
2022/04/28 10:46:01;;;;;;;;;19.00;17.33;;;;;;;;5080825;28;46060;-77
2022/04/28 10:48:28;;;;;;;;;41.33;34.00;;;;;;;;5082239;28;45339;-77
2022/04/28 10:50:59;;;;;;;;;44.00;35.67;;;;;;;;5082134;27;45694;-76
2022/04/28 10:53:25;;;;;;;;;49.50;40.50;;;;;;;;5081091;28;45524;-77
2022/04/28 10:55:50;;;;;;;;;33.00;29.33;;;;;;;;5080727;28;45989;-78
2022/04/28 10:58:21;;;;;;;;;11.67;11.67;;;;;;;;5081190;28;47493;-77
2022/04/28 11:01:05;;;;;;;;;13.33;13.00;;;;;;;;5082171;27;45312;-78
2022/04/28 11:03:50;;;;;;;;;29.67;26.33;;;;;;;;5082420;27;45290;-76
2022/04/28 11:06:18;;;;;;;;;49.75;39.75;;;;;;;;5081718;27;45434;-77
2022/04/28 11:08:45;;;;;;;;;53.50;42.00;;;;;;;;5081960;28;45479;-78
2022/04/28 11:11:12;;;;;;;;;14.33;14.33;;;;;;;;5080874;27;45417;-78
2022/04/28 11:13:38;;;;;;;;;12.00;12.00;;;;;;;;5082451;27;45409;-78
2022/04/28 11:16:03;;;;;;;;;17.00;17.00;;;;;;;;5094481;27;45534;-78
2022/04/28 11:18:29;;;;;;;;;20.33;17.33;;;;;;;;5102616;27;45429;-76
2022/04/28 11:20:58;;;;;;;;;38.67;34.33;;;;;;;;5102101;27;45344;-77
2022/04/28 11:23:23;;;;;;;;;24.33;22.00;;;;;;;;5101297;27;45349;-78
2022/04/28 11:25:48;;;;;;;;;43.67;35.33;;;;;;;;5102397;27;45239;-77
2022/04/28 11:28:13;;;;;;;;;29.33;24.67;;;;;;;;5102331;27;45409;-77
2022/04/28 11:30:41;;;;;;;;;42.67;35.67;;;;;;;;5101128;27;45428;-78
2022/04/28 11:33:06;;;;;;;;;80.75;73.25;;;;;;;;5102238;27;45449;-77
2022/04/28 11:35:35;;;;;;;;;16.67;16.67;;;;;;;;5101871;27;45449;-77
2022/04/28 11:38:00;;;;;;;;;11.33;11.33;;;;;;;;5101965;27;46293;-78
2022/04/28 11:40:26;;;;;;;;;21.33;20.67;;;;;;;;5102187;27;45156;-77
2022/04/28 11:42:58;;;;;;;;;26.00;26.00;;;;;;;;5102383;27;45203;-78
2022/04/28 11:45:23;;;;;;;;;10.00;9.00;;;;;;;;5101942;27;45387;-77
2022/04/28 11:47:49;;;;;;;;;10.33;10.33;;;;;;;;5101903;27;46239;-78
2022/04/28 11:50:21;;;;;;;;;14.67;12.00;;;;;;;;5100708;27;45688;-76
2022/04/28 11:52:57;;;;;;;;;22.67;21.33;;;;;;;;5102063;27;45354;-78
2022/04/28 11:55:24;;;;;;;;;11.33;10.00;;;;;;;;5101779;27;45429;-78
2022/04/28 11:57:49;;;;;;;;;51.00;39.75;;;;;;;;5100619;27;48559;-77
2022/04/28 12:00:15;;;;;;;;;11.67;11.00;;;;;;;;5100209;27;45837;-77
2022/04/28 12:02:42;;;;;;;;;17.00;15.67;;;;;;;;5102064;27;45772;-77
2022/04/28 12:05:18;;;;;;;;;27.00;26.67;;;;;;;;5101671;27;45273;-78
2022/04/28 12:07:51;;;;;;;;;22.00;20.00;;;;;;;;5101551;27;45357;-78
2022/04/28 12:15:55;;;;;;;;;55.00;43.00;;;;;;;;5089595;27;45362;-77
2022/04/28 12:21:15;;;;;;;;;43.00;36.67;;;;;;;;5080842;28;45243;-77
2022/04/28 12:23:41;;;;;;;;;15.67;14.33;;;;;;;;5080905;27;45319;-77
2022/04/28 12:26:09;;;;;;;;;14.33;12.67;;;;;;;;5080649;27;45394;-77
2022/04/28 12:28:35;;;;;;;;;13.00;13.00;;;;;;;;5080883;27;45191;-77
2022/04/28 12:31:02;;;;;;;;;9.33;9.33;;;;;;;;5080714;28;45474;-78
2022/04/28 12:33:28;;;;;;;;;9.00;9.00;;;;;;;;5079753;28;45412;-77
2022/04/28 12:35:57;;;;;;;;;48.67;38.67;;;;;;;;5080234;27;45255;-77
2022/04/28 12:38:26;;;;;;;;;21.00;19.67;;;;;;;;5080671;27;45393;-78
2022/04/28 12:40:52;;;;;;;;;12.00;12.00;;;;;;;;5078909;28;45501;-78
2022/04/28 12:43:37;;;;;;;;;15.67;14.00;;;;;;;;5080718;27;45283;-77
2022/04/28 12:46:03;;;;;;;;;15.67;15.67;;;;;;;;5079129;28;46159;-77
2022/04/28 12:48:35;;;;;;;;;7.00;7.00;;;;;;;;5080575;28;45361;-77
2022/04/28 12:51:14;;;;;;;;;8.00;7.33;;;;;;;;5080487;27;45440;-77
2022/04/28 12:53:42;;;;;;;;;10.00;8.00;;;;;;;;5080679;28;45282;-77
2022/04/28 12:56:09;;;;;;;;;7.67;7.00;;;;;;;;5080244;28;45286;-78
2022/04/28 12:58:48;;;;;;;;;16.00;14.33;;;;;;;;5079085;28;47247;-77
2022/04/28 13:01:18;;;;;;;;;9.00;9.00;;;;;;;;5080444;28;45446;-77
2022/04/28 13:03:51;;;;;;;;;25.33;23.67;;;;;;;;5079178;28;45298;-78
2022/04/28 13:06:16;;;;;;;;;9.67;7.67;;;;;;;;5078435;28;46290;-78
2022/04/28 13:08:42;;;;;;;;;25.67;23.00;;;;;;;;5080135;27;45204;-77
2022/04/28 13:11:07;;;;;;;;;8.67;7.33;;;;;;;;5078922;28;45332;-77
2022/04/28 13:13:32;;;;;;;;;20.00;20.00;;;;;;;;5080390;27;45255;-78
2022/04/28 13:15:57;;;;;;;;;8.67;8.67;;;;;;;;5091902;27;45264;-78
2022/04/28 13:18:23;;;;;;;;;9.33;9.33;;;;;;;;5099049;27;47100;-78
2022/04/28 13:20:48;;;;;;;;;7.00;7.00;;;;;;;;5100278;27;45332;-77
2022/04/28 13:23:13;;;;;;;;;8.00;7.00;;;;;;;;5100787;27;45337;-78
2022/04/28 13:25:38;;;;;;;;;10.00;10.00;;;;;;;;5099042;27;46909;-77
2022/04/28 13:28:04;;;;;;;;;11.67;9.00;;;;;;;;5100333;27;46081;-78
2022/04/28 13:30:29;;;;;;;;;8.67;8.67;;;;;;;;5100493;27;45317;-78
2022/04/28 13:32:54;;;;;;;;;45.33;36.67;;;;;;;;5099308;27;45191;-77
2022/04/28 13:35:19;;;;;;;;;19.33;17.33;;;;;;;;5100069;27;45559;-77
2022/04/28 13:37:45;;;;;;;;;7.67;7.67;;;;;;;;5100176;27;45235;-78
2022/04/28 13:40:10;;;;;;;;;9.00;7.33;;;;;;;;5099008;27;45351;-79
2022/04/28 13:42:35;;;;;;;;;14.33;13.00;;;;;;;;5100306;27;45499;-78
2022/04/28 13:45:00;;;;;;;;;8.33;8.00;;;;;;;;5100127;27;45455;-77
2022/04/28 13:47:27;;;;;;;;;7.00;6.00;;;;;;;;5100133;27;45595;-77
2022/04/28 13:49:55;;;;;;;;;7.67;7.67;;;;;;;;5100066;27;45340;-76
2022/04/28 13:52:21;;;;;;;;;7.67;7.67;;;;;;;;5099229;27;45285;-77
2022/04/28 13:54:46;;;;;;;;;10.67;10.67;;;;;;;;5099983;27;45378;-77
2022/04/28 13:57:13;;;;;;;;;9.00;9.00;;;;;;;;5100106;27;46377;-76
2022/04/28 13:59:38;;;;;;;;;9.33;9.00;;;;;;;;5099975;27;45327;-77
2022/04/28 14:02:04;;;;;;;;;66.25;53.50;;;;;;;;5100076;27;45328;-76
2022/04/28 14:04:29;;;;;;;;;51.33;41.33;;;;;;;;5099821;27;45413;-77
2022/04/28 14:06:54;;;;;;;;;10.33;9.00;;;;;;;;5099514;27;45392;-77
2022/04/28 14:09:20;;;;;;;;;72.00;64.00;;;;;;;;5098597;27;45411;-76
2022/04/28 14:11:46;;;;;;;;;15.67;15.67;;;;;;;;5100091;27;45420;-76
2022/04/28 14:14:11;;;;;;;;;8.33;8.33;;;;;;;;5099682;27;45540;-77
2022/04/28 14:16:37;;;;;;;;;12.00;12.00;;;;;;;;5080660;27;47164;-76
2022/04/28 14:19:02;;;;;;;;;13.00;13.00;;;;;;;;5079204;27;45325;-75
2022/04/28 14:21:27;;;;;;;;;30.33;27.67;;;;;;;;5077722;28;45362;-76
2022/04/28 14:23:52;;;;;;;;;24.33;22.33;;;;;;;;5077986;28;47076;-76
2022/04/28 14:26:18;;;;;;;;;8.00;8.00;;;;;;;;5079104;27;45426;-76
2022/04/28 14:28:44;;;;;;;;;8.33;8.33;;;;;;;;5079252;27;45394;-76
2022/04/28 14:31:09;;;;;;;;;8.67;8.00;;;;;;;;5077584;28;45620;-76
2022/04/28 14:33:34;;;;;;;;;6.00;6.00;;;;;;;;5079318;27;45502;-76
2022/04/28 14:35:59;;;;;;;;;8.00;8.00;;;;;;;;5078609;27;46364;-77
2022/04/28 14:38:25;;;;;;;;;12.00;11.00;;;;;;;;5079159;28;45215;-77
2022/04/28 14:40:50;;;;;;;;;32.33;29.33;;;;;;;;5078053;28;45294;-76
2022/04/28 14:43:15;;;;;;;;;12.33;12.00;;;;;;;;5077703;28;46939;-76
2022/04/28 14:45:43;;;;;;;;;25.67;24.33;;;;;;;;5079322;28;46036;-76
2022/04/28 14:48:08;;;;;;;;;8.00;8.00;;;;;;;;5078004;28;45339;-76